sensor_id;sensor_type;location;lat;lon;timestamp;P1;durP1;ratioP1;P2;durP2;ratioP2
20731;SDS011;10527;52.124;5.196;2023-06-14T00:01:31;3.15;;;1.77;;
20731;SDS011;10527;52.124;5.196;2023-06-14T00:04:00;2.08;;;1.52;;
20731;SDS011;10527;52.124;5.196;2023-06-14T00:06:32;2.97;;;2.05;;
20731;SDS011;10527;52.124;5.196;2023-06-14T00:09:00;2.85;;;1.80;;
20731;SDS011;10527;52.124;5.196;2023-06-14T00:11:27;3.90;;;2.03;;
20731;SDS011;10527;52.124;5.196;2023-06-14T00:13:54;4.00;;;1.80;;
20731;SDS011;10527;52.124;5.196;2023-06-14T00:19:03;5.65;;;1.60;;
20731;SDS011;10527;52.124;5.196;2023-06-14T00:21:31;5.10;;;2.05;;
20731;SDS011;10527;52.124;5.196;2023-06-14T00:23:58;3.30;;;1.80;;
20731;SDS011;10527;52.124;5.196;2023-06-14T00:26:26;4.47;;;2.00;;
20731;SDS011;10527;52.124;5.196;2023-06-14T00:28:56;3.95;;;1.60;;
20731;SDS011;10527;52.124;5.196;2023-06-14T00:31:22;4.03;;;1.92;;
20731;SDS011;10527;52.124;5.196;2023-06-14T00:33:49;2.85;;;2.28;;
20731;SDS011;10527;52.124;5.196;2023-06-14T00:36:16;2.90;;;1.63;;
20731;SDS011;10527;52.124;5.196;2023-06-14T00:38:43;2.50;;;1.83;;
20731;SDS011;10527;52.124;5.196;2023-06-14T00:41:10;5.30;;;1.77;;
20731;SDS011;10527;52.124;5.196;2023-06-14T00:43:37;6.88;;;1.95;;
20731;SDS011;10527;52.124;5.196;2023-06-14T00:46:03;3.67;;;1.77;;
20731;SDS011;10527;52.124;5.196;2023-06-14T00:48:32;4.35;;;1.75;;
20731;SDS011;10527;52.124;5.196;2023-06-14T00:51:01;3.83;;;1.73;;
20731;SDS011;10527;52.124;5.196;2023-06-14T00:53:30;4.57;;;1.63;;
20731;SDS011;10527;52.124;5.196;2023-06-14T00:56:00;2.72;;;1.60;;
20731;SDS011;10527;52.124;5.196;2023-06-14T00:58:27;3.20;;;1.83;;
20731;SDS011;10527;52.124;5.196;2023-06-14T01:00:54;2.50;;;1.85;;
20731;SDS011;10527;52.124;5.196;2023-06-14T01:03:24;3.95;;;1.98;;
20731;SDS011;10527;52.124;5.196;2023-06-14T01:05:53;2.28;;;1.55;;
20731;SDS011;10527;52.124;5.196;2023-06-14T01:08:43;3.85;;;1.80;;
20731;SDS011;10527;52.124;5.196;2023-06-14T01:11:24;3.45;;;1.50;;
20731;SDS011;10527;52.124;5.196;2023-06-14T01:13:59;5.22;;;2.00;;
20731;SDS011;10527;52.124;5.196;2023-06-14T01:16:29;2.45;;;1.58;;
20731;SDS011;10527;52.124;5.196;2023-06-14T01:18:58;3.30;;;1.90;;
20731;SDS011;10527;52.124;5.196;2023-06-14T01:21:25;2.60;;;2.00;;
20731;SDS011;10527;52.124;5.196;2023-06-14T01:23:54;3.33;;;1.63;;
20731;SDS011;10527;52.124;5.196;2023-06-14T01:26:22;2.95;;;1.67;;
20731;SDS011;10527;52.124;5.196;2023-06-14T01:28:50;2.95;;;2.00;;
20731;SDS011;10527;52.124;5.196;2023-06-14T01:31:20;7.43;;;2.30;;
20731;SDS011;10527;52.124;5.196;2023-06-14T01:33:48;3.17;;;1.90;;
20731;SDS011;10527;52.124;5.196;2023-06-14T01:36:19;2.70;;;1.83;;
20731;SDS011;10527;52.124;5.196;2023-06-14T01:38:47;8.68;;;1.70;;
20731;SDS011;10527;52.124;5.196;2023-06-14T01:41:17;4.28;;;1.48;;
20731;SDS011;10527;52.124;5.196;2023-06-14T01:43:47;2.10;;;1.63;;
20731;SDS011;10527;52.124;5.196;2023-06-14T01:46:16;2.65;;;1.55;;
20731;SDS011;10527;52.124;5.196;2023-06-14T01:48:44;2.80;;;1.70;;
20731;SDS011;10527;52.124;5.196;2023-06-14T01:51:11;3.03;;;1.67;;
20731;SDS011;10527;52.124;5.196;2023-06-14T01:53:38;2.50;;;1.48;;
20731;SDS011;10527;52.124;5.196;2023-06-14T01:56:05;4.97;;;1.90;;
20731;SDS011;10527;52.124;5.196;2023-06-14T01:58:32;4.85;;;2.03;;
20731;SDS011;10527;52.124;5.196;2023-06-14T02:01:01;1.88;;;1.50;;
20731;SDS011;10527;52.124;5.196;2023-06-14T02:03:28;4.88;;;1.98;;
20731;SDS011;10527;52.124;5.196;2023-06-14T02:05:56;2.38;;;1.42;;
20731;SDS011;10527;52.124;5.196;2023-06-14T02:08:23;2.80;;;1.63;;
20731;SDS011;10527;52.124;5.196;2023-06-14T02:10:50;3.42;;;1.75;;
20731;SDS011;10527;52.124;5.196;2023-06-14T02:13:18;3.25;;;1.80;;
20731;SDS011;10527;52.124;5.196;2023-06-14T02:15:45;5.60;;;1.80;;
20731;SDS011;10527;52.124;5.196;2023-06-14T02:18:13;2.78;;;1.73;;
20731;SDS011;10527;52.124;5.196;2023-06-14T02:20:39;4.28;;;2.00;;
20731;SDS011;10527;52.124;5.196;2023-06-14T02:23:06;2.15;;;1.70;;
20731;SDS011;10527;52.124;5.196;2023-06-14T02:25:35;2.28;;;1.48;;
20731;SDS011;10527;52.124;5.196;2023-06-14T02:28:03;2.85;;;2.20;;
20731;SDS011;10527;52.124;5.196;2023-06-14T02:30:30;2.80;;;1.35;;
20731;SDS011;10527;52.124;5.196;2023-06-14T02:32:57;3.28;;;1.55;;
20731;SDS011;10527;52.124;5.196;2023-06-14T02:35:25;2.10;;;1.42;;
20731;SDS011;10527;52.124;5.196;2023-06-14T02:37:53;3.00;;;1.60;;
20731;SDS011;10527;52.124;5.196;2023-06-14T02:40:20;3.95;;;1.70;;
20731;SDS011;10527;52.124;5.196;2023-06-14T02:42:47;3.85;;;1.83;;
20731;SDS011;10527;52.124;5.196;2023-06-14T02:45:14;3.70;;;1.65;;
20731;SDS011;10527;52.124;5.196;2023-06-14T02:47:41;4.32;;;2.17;;
20731;SDS011;10527;52.124;5.196;2023-06-14T02:50:08;2.95;;;1.80;;
20731;SDS011;10527;52.124;5.196;2023-06-14T02:52:35;2.70;;;1.65;;
20731;SDS011;10527;52.124;5.196;2023-06-14T02:55:03;4.45;;;2.10;;
20731;SDS011;10527;52.124;5.196;2023-06-14T02:57:30;2.55;;;1.60;;
20731;SDS011;10527;52.124;5.196;2023-06-14T02:59:57;4.90;;;1.80;;
20731;SDS011;10527;52.124;5.196;2023-06-14T03:02:24;6.60;;;2.08;;
20731;SDS011;10527;52.124;5.196;2023-06-14T03:04:51;2.92;;;1.52;;
20731;SDS011;10527;52.124;5.196;2023-06-14T03:07:18;4.75;;;1.55;;
20731;SDS011;10527;52.124;5.196;2023-06-14T03:09:46;3.67;;;2.05;;
20731;SDS011;10527;52.124;5.196;2023-06-14T03:12:15;4.18;;;1.52;;
20731;SDS011;10527;52.124;5.196;2023-06-14T03:14:42;1.98;;;1.50;;
20731;SDS011;10527;52.124;5.196;2023-06-14T03:17:12;2.60;;;1.65;;
20731;SDS011;10527;52.124;5.196;2023-06-14T03:19:39;3.88;;;1.83;;
20731;SDS011;10527;52.124;5.196;2023-06-14T03:22:07;3.65;;;1.70;;
20731;SDS011;10527;52.124;5.196;2023-06-14T03:24:34;3.17;;;1.75;;
20731;SDS011;10527;52.124;5.196;2023-06-14T03:27:03;2.10;;;1.42;;
20731;SDS011;10527;52.124;5.196;2023-06-14T03:29:30;2.63;;;1.58;;
20731;SDS011;10527;52.124;5.196;2023-06-14T03:34:29;5.18;;;1.63;;
20731;SDS011;10527;52.124;5.196;2023-06-14T03:36:56;5.00;;;2.00;;
20731;SDS011;10527;52.124;5.196;2023-06-14T03:39:37;3.80;;;1.75;;
20731;SDS011;10527;52.124;5.196;2023-06-14T03:42:04;3.45;;;1.88;;
20731;SDS011;10527;52.124;5.196;2023-06-14T03:44:35;9.05;;;1.88;;
20731;SDS011;10527;52.124;5.196;2023-06-14T03:47:02;5.75;;;1.95;;
20731;SDS011;10527;52.124;5.196;2023-06-14T03:49:29;2.78;;;1.48;;
20731;SDS011;10527;52.124;5.196;2023-06-14T03:51:56;2.55;;;1.38;;
20731;SDS011;10527;52.124;5.196;2023-06-14T03:54:23;2.55;;;1.50;;
20731;SDS011;10527;52.124;5.196;2023-06-14T03:56:53;2.58;;;1.40;;
20731;SDS011;10527;52.124;5.196;2023-06-14T03:59:20;3.65;;;1.42;;
20731;SDS011;10527;52.124;5.196;2023-06-14T04:01:47;3.78;;;2.15;;
20731;SDS011;10527;52.124;5.196;2023-06-14T04:04:15;3.17;;;1.70;;
20731;SDS011;10527;52.124;5.196;2023-06-14T04:06:43;4.55;;;1.48;;
20731;SDS011;10527;52.124;5.196;2023-06-14T04:09:09;4.82;;;1.45;;
20731;SDS011;10527;52.124;5.196;2023-06-14T04:11:36;2.83;;;1.60;;
20731;SDS011;10527;52.124;5.196;2023-06-14T04:14:03;5.18;;;2.38;;
20731;SDS011;10527;52.124;5.196;2023-06-14T04:16:31;3.67;;;1.95;;
20731;SDS011;10527;52.124;5.196;2023-06-14T04:18:58;4.82;;;1.60;;
20731;SDS011;10527;52.124;5.196;2023-06-14T04:21:25;3.33;;;1.88;;
20731;SDS011;10527;52.124;5.196;2023-06-14T04:23:56;2.50;;;1.58;;
20731;SDS011;10527;52.124;5.196;2023-06-14T04:26:23;2.47;;;1.65;;
20731;SDS011;10527;52.124;5.196;2023-06-14T04:28:56;2.65;;;1.98;;
20731;SDS011;10527;52.124;5.196;2023-06-14T04:31:28;2.67;;;1.63;;
20731;SDS011;10527;52.124;5.196;2023-06-14T04:33:56;2.33;;;1.55;;
20731;SDS011;10527;52.124;5.196;2023-06-14T04:36:23;2.65;;;1.60;;
20731;SDS011;10527;52.124;5.196;2023-06-14T04:38:51;5.32;;;1.75;;
20731;SDS011;10527;52.124;5.196;2023-06-14T04:41:22;6.45;;;1.60;;
20731;SDS011;10527;52.124;5.196;2023-06-14T04:43:54;3.75;;;1.63;;
20731;SDS011;10527;52.124;5.196;2023-06-14T04:46:23;4.15;;;1.50;;
20731;SDS011;10527;52.124;5.196;2023-06-14T04:48:50;6.07;;;1.60;;
20731;SDS011;10527;52.124;5.196;2023-06-14T04:51:17;5.10;;;1.70;;
20731;SDS011;10527;52.124;5.196;2023-06-14T04:53:47;4.07;;;2.03;;
20731;SDS011;10527;52.124;5.196;2023-06-14T04:56:15;6.22;;;1.70;;
20731;SDS011;10527;52.124;5.196;2023-06-14T04:58:43;2.20;;;1.77;;
20731;SDS011;10527;52.124;5.196;2023-06-14T05:01:10;4.25;;;1.70;;
20731;SDS011;10527;52.124;5.196;2023-06-14T05:03:37;2.88;;;1.67;;
20731;SDS011;10527;52.124;5.196;2023-06-14T05:06:04;3.75;;;1.40;;
20731;SDS011;10527;52.124;5.196;2023-06-14T05:08:32;3.58;;;1.48;;
20731;SDS011;10527;52.124;5.196;2023-06-14T05:10:59;3.22;;;1.88;;
20731;SDS011;10527;52.124;5.196;2023-06-14T05:13:26;6.68;;;1.98;;
20731;SDS011;10527;52.124;5.196;2023-06-14T05:15:54;4.07;;;1.92;;
20731;SDS011;10527;52.124;5.196;2023-06-14T05:18:20;5.25;;;2.13;;
20731;SDS011;10527;52.124;5.196;2023-06-14T05:20:48;2.88;;;1.92;;
20731;SDS011;10527;52.124;5.196;2023-06-14T05:23:15;4.43;;;1.70;;
20731;SDS011;10527;52.124;5.196;2023-06-14T05:25:45;5.43;;;1.90;;
20731;SDS011;10527;52.124;5.196;2023-06-14T05:28:12;2.97;;;1.58;;
20731;SDS011;10527;52.124;5.196;2023-06-14T05:30:39;4.10;;;1.85;;
20731;SDS011;10527;52.124;5.196;2023-06-14T05:33:07;3.97;;;1.83;;
20731;SDS011;10527;52.124;5.196;2023-06-14T05:35:37;3.78;;;2.15;;
20731;SDS011;10527;52.124;5.196;2023-06-14T05:38:04;6.28;;;2.00;;
20731;SDS011;10527;52.124;5.196;2023-06-14T05:40:33;5.15;;;2.15;;
20731;SDS011;10527;52.124;5.196;2023-06-14T05:43:02;4.55;;;1.95;;
20731;SDS011;10527;52.124;5.196;2023-06-14T05:45:30;2.70;;;2.03;;
20731;SDS011;10527;52.124;5.196;2023-06-14T05:47:57;3.55;;;1.50;;
20731;SDS011;10527;52.124;5.196;2023-06-14T05:50:24;2.40;;;1.63;;
20731;SDS011;10527;52.124;5.196;2023-06-14T05:52:51;2.47;;;1.50;;
20731;SDS011;10527;52.124;5.196;2023-06-14T05:55:19;4.43;;;1.90;;
20731;SDS011;10527;52.124;5.196;2023-06-14T05:57:49;7.25;;;2.00;;
20731;SDS011;10527;52.124;5.196;2023-06-14T06:00:16;3.03;;;1.35;;
20731;SDS011;10527;52.124;5.196;2023-06-14T06:02:44;4.43;;;1.65;;
20731;SDS011;10527;52.124;5.196;2023-06-14T06:05:12;5.00;;;1.70;;
20731;SDS011;10527;52.124;5.196;2023-06-14T06:07:40;4.18;;;1.60;;
20731;SDS011;10527;52.124;5.196;2023-06-14T06:10:08;5.60;;;2.53;;
20731;SDS011;10527;52.124;5.196;2023-06-14T06:12:35;7.03;;;1.70;;
20731;SDS011;10527;52.124;5.196;2023-06-14T06:15:02;2.92;;;1.73;;
20731;SDS011;10527;52.124;5.196;2023-06-14T06:17:30;5.57;;;1.73;;
20731;SDS011;10527;52.124;5.196;2023-06-14T06:20:16;2.58;;;1.35;;
20731;SDS011;10527;52.124;5.196;2023-06-14T06:22:43;2.97;;;1.58;;
20731;SDS011;10527;52.124;5.196;2023-06-14T06:25:10;7.22;;;2.45;;
20731;SDS011;10527;52.124;5.196;2023-06-14T06:27:37;2.35;;;1.58;;
20731;SDS011;10527;52.124;5.196;2023-06-14T06:30:04;5.13;;;1.75;;
20731;SDS011;10527;52.124;5.196;2023-06-14T06:32:33;3.08;;;1.55;;
20731;SDS011;10527;52.124;5.196;2023-06-14T06:35:00;3.97;;;1.77;;
20731;SDS011;10527;52.124;5.196;2023-06-14T06:37:27;3.03;;;1.92;;
20731;SDS011;10527;52.124;5.196;2023-06-14T06:39:53;3.40;;;1.80;;
20731;SDS011;10527;52.124;5.196;2023-06-14T06:42:20;2.90;;;1.92;;
20731;SDS011;10527;52.124;5.196;2023-06-14T06:44:47;5.28;;;1.63;;
20731;SDS011;10527;52.124;5.196;2023-06-14T06:47:14;3.60;;;1.58;;
20731;SDS011;10527;52.124;5.196;2023-06-14T06:49:41;2.30;;;1.70;;
20731;SDS011;10527;52.124;5.196;2023-06-14T06:52:08;3.53;;;2.20;;
20731;SDS011;10527;52.124;5.196;2023-06-14T06:54:35;5.20;;;1.90;;
20731;SDS011;10527;52.124;5.196;2023-06-14T06:57:01;4.78;;;2.33;;
20731;SDS011;10527;52.124;5.196;2023-06-14T06:59:28;5.05;;;1.73;;
20731;SDS011;10527;52.124;5.196;2023-06-14T07:01:56;8.65;;;1.67;;
20731;SDS011;10527;52.124;5.196;2023-06-14T07:04:25;4.75;;;1.90;;
20731;SDS011;10527;52.124;5.196;2023-06-14T07:06:51;3.00;;;1.75;;
20731;SDS011;10527;52.124;5.196;2023-06-14T07:09:18;5.43;;;1.88;;
20731;SDS011;10527;52.124;5.196;2023-06-14T07:11:46;4.15;;;1.63;;
20731;SDS011;10527;52.124;5.196;2023-06-14T07:14:14;3.83;;;2.10;;
20731;SDS011;10527;52.124;5.196;2023-06-14T07:16:41;3.20;;;1.77;;
20731;SDS011;10527;52.124;5.196;2023-06-14T07:19:09;5.38;;;1.80;;
20731;SDS011;10527;52.124;5.196;2023-06-14T07:21:36;6.13;;;1.83;;
20731;SDS011;10527;52.124;5.196;2023-06-14T07:24:06;2.40;;;1.63;;
20731;SDS011;10527;52.124;5.196;2023-06-14T07:26:40;3.80;;;1.80;;
20731;SDS011;10527;52.124;5.196;2023-06-14T07:29:07;8.00;;;1.83;;
20731;SDS011;10527;52.124;5.196;2023-06-14T07:31:34;2.13;;;1.40;;
20731;SDS011;10527;52.124;5.196;2023-06-14T07:34:02;2.83;;;1.60;;
20731;SDS011;10527;52.124;5.196;2023-06-14T07:36:32;3.00;;;1.70;;
20731;SDS011;10527;52.124;5.196;2023-06-14T07:38:59;4.28;;;1.50;;
20731;SDS011;10527;52.124;5.196;2023-06-14T07:41:28;3.38;;;1.73;;
20731;SDS011;10527;52.124;5.196;2023-06-14T07:43:55;4.30;;;1.30;;
20731;SDS011;10527;52.124;5.196;2023-06-14T07:46:22;2.53;;;1.48;;
20731;SDS011;10527;52.124;5.196;2023-06-14T07:48:49;3.53;;;1.40;;
20731;SDS011;10527;52.124;5.196;2023-06-14T07:51:16;3.75;;;1.40;;
20731;SDS011;10527;52.124;5.196;2023-06-14T07:53:43;2.17;;;1.60;;
20731;SDS011;10527;52.124;5.196;2023-06-14T07:56:10;3.28;;;1.38;;
20731;SDS011;10527;52.124;5.196;2023-06-14T07:58:36;4.25;;;1.15;;
20731;SDS011;10527;52.124;5.196;2023-06-14T08:01:03;2.55;;;1.40;;
20731;SDS011;10527;52.124;5.196;2023-06-14T08:03:32;1.75;;;1.38;;
20731;SDS011;10527;52.124;5.196;2023-06-14T08:05:59;8.32;;;1.70;;
20731;SDS011;10527;52.124;5.196;2023-06-14T08:08:27;2.28;;;1.20;;
20731;SDS011;10527;52.124;5.196;2023-06-14T08:10:54;2.65;;;1.30;;
20731;SDS011;10527;52.124;5.196;2023-06-14T08:13:21;3.95;;;1.60;;
20731;SDS011;10527;52.124;5.196;2023-06-14T08:15:48;2.72;;;1.00;;
20731;SDS011;10527;52.124;5.196;2023-06-14T08:18:15;2.70;;;1.65;;
20731;SDS011;10527;52.124;5.196;2023-06-14T08:20:42;10.82;;;1.55;;
20731;SDS011;10527;52.124;5.196;2023-06-14T08:23:10;4.35;;;1.25;;
20731;SDS011;10527;52.124;5.196;2023-06-14T08:25:37;4.25;;;1.50;;
20731;SDS011;10527;52.124;5.196;2023-06-14T08:28:04;1.33;;;1.00;;
20731;SDS011;10527;52.124;5.196;2023-06-14T08:30:31;2.35;;;1.10;;
20731;SDS011;10527;52.124;5.196;2023-06-14T08:32:58;2.00;;;1.00;;
20731;SDS011;10527;52.124;5.196;2023-06-14T08:35:41;1.52;;;1.10;;
20731;SDS011;10527;52.124;5.196;2023-06-14T08:38:09;1.25;;;0.90;;
20731;SDS011;10527;52.124;5.196;2023-06-14T08:40:38;3.45;;;1.10;;
20731;SDS011;10527;52.124;5.196;2023-06-14T08:43:08;4.00;;;0.90;;
20731;SDS011;10527;52.124;5.196;2023-06-14T08:45:36;2.17;;;1.20;;
20731;SDS011;10527;52.124;5.196;2023-06-14T08:48:06;1.30;;;0.93;;
20731;SDS011;10527;52.124;5.196;2023-06-14T08:50:34;1.45;;;0.93;;
20731;SDS011;10527;52.124;5.196;2023-06-14T08:53:07;3.78;;;1.02;;
20731;SDS011;10527;52.124;5.196;2023-06-14T08:55:45;5.80;;;1.23;;
20731;SDS011;10527;52.124;5.196;2023-06-14T08:58:14;2.03;;;1.52;;
20731;SDS011;10527;52.124;5.196;2023-06-14T09:00:41;2.38;;;1.10;;
20731;SDS011;10527;52.124;5.196;2023-06-14T09:03:11;1.42;;;0.93;;
20731;SDS011;10527;52.124;5.196;2023-06-14T09:05:40;1.60;;;1.15;;
20731;SDS011;10527;52.124;5.196;2023-06-14T09:08:07;1.35;;;1.00;;
20731;SDS011;10527;52.124;5.196;2023-06-14T09:10:34;3.47;;;1.00;;
20731;SDS011;10527;52.124;5.196;2023-06-14T09:13:04;2.17;;;1.10;;
20731;SDS011;10527;52.124;5.196;2023-06-14T09:15:31;1.77;;;0.88;;
20731;SDS011;10527;52.124;5.196;2023-06-14T09:18:03;2.95;;;1.10;;
20731;SDS011;10527;52.124;5.196;2023-06-14T09:20:30;2.65;;;0.95;;
20731;SDS011;10527;52.124;5.196;2023-06-14T09:22:58;1.45;;;0.90;;
20731;SDS011;10527;52.124;5.196;2023-06-14T09:25:25;1.85;;;1.45;;
20731;SDS011;10527;52.124;5.196;2023-06-14T09:28:06;4.32;;;1.17;;
20731;SDS011;10527;52.124;5.196;2023-06-14T09:30:36;5.13;;;1.65;;
20731;SDS011;10527;52.124;5.196;2023-06-14T09:33:04;1.48;;;1.13;;
20731;SDS011;10527;52.124;5.196;2023-06-14T09:35:31;1.27;;;0.90;;
20731;SDS011;10527;52.124;5.196;2023-06-14T09:37:58;2.83;;;0.80;;
20731;SDS011;10527;52.124;5.196;2023-06-14T09:40:26;1.55;;;1.10;;
20731;SDS011;10527;52.124;5.196;2023-06-14T09:42:53;1.98;;;1.30;;
20731;SDS011;10527;52.124;5.196;2023-06-14T09:45:27;1.10;;;0.90;;
20731;SDS011;10527;52.124;5.196;2023-06-14T09:47:57;1.25;;;0.75;;
20731;SDS011;10527;52.124;5.196;2023-06-14T09:50:27;3.10;;;0.80;;
20731;SDS011;10527;52.124;5.196;2023-06-14T09:52:55;2.40;;;1.00;;
20731;SDS011;10527;52.124;5.196;2023-06-14T09:55:37;4.43;;;1.40;;
20731;SDS011;10527;52.124;5.196;2023-06-14T09:58:08;3.15;;;1.23;;
20731;SDS011;10527;52.124;5.196;2023-06-14T10:00:38;1.73;;;1.02;;
20731;SDS011;10527;52.124;5.196;2023-06-14T10:03:13;2.03;;;0.75;;
20731;SDS011;10527;52.124;5.196;2023-06-14T10:05:59;3.72;;;1.98;;
20731;SDS011;10527;52.124;5.196;2023-06-14T10:08:34;2.38;;;0.80;;
20731;SDS011;10527;52.124;5.196;2023-06-14T10:11:03;1.30;;;0.80;;
20731;SDS011;10527;52.124;5.196;2023-06-14T10:13:31;2.00;;;0.90;;
20731;SDS011;10527;52.124;5.196;2023-06-14T10:16:05;4.68;;;0.80;;
20731;SDS011;10527;52.124;5.196;2023-06-14T10:18:53;2.00;;;1.10;;
20731;SDS011;10527;52.124;5.196;2023-06-14T10:21:55;1.30;;;0.75;;
20731;SDS011;10527;52.124;5.196;2023-06-14T10:24:42;3.65;;;1.08;;
20731;SDS011;10527;52.124;5.196;2023-06-14T10:27:13;1.55;;;0.90;;
20731;SDS011;10527;52.124;5.196;2023-06-14T10:32:20;3.05;;;1.15;;
20731;SDS011;10527;52.124;5.196;2023-06-14T10:34:53;1.98;;;0.85;;
20731;SDS011;10527;52.124;5.196;2023-06-14T10:37:32;1.70;;;1.10;;
20731;SDS011;10527;52.124;5.196;2023-06-14T10:40:00;1.77;;;0.80;;
20731;SDS011;10527;52.124;5.196;2023-06-14T10:42:31;1.98;;;0.90;;
20731;SDS011;10527;52.124;5.196;2023-06-14T10:44:59;1.08;;;0.80;;
20731;SDS011;10527;52.124;5.196;2023-06-14T10:47:28;1.90;;;1.02;;
20731;SDS011;10527;52.124;5.196;2023-06-14T10:52:35;2.35;;;0.90;;
20731;SDS011;10527;52.124;5.196;2023-06-14T10:55:15;3.42;;;1.02;;
20731;SDS011;10527;52.124;5.196;2023-06-14T10:57:47;1.92;;;1.65;;
20731;SDS011;10527;52.124;5.196;2023-06-14T11:00:20;1.98;;;0.82;;
20731;SDS011;10527;52.124;5.196;2023-06-14T11:05:50;1.17;;;0.90;;
20731;SDS011;10527;52.124;5.196;2023-06-14T11:11:31;3.33;;;0.85;;
20731;SDS011;10527;52.124;5.196;2023-06-14T11:14:02;2.85;;;0.70;;
20731;SDS011;10527;52.124;5.196;2023-06-14T11:16:29;1.02;;;0.68;;
20731;SDS011;10527;52.124;5.196;2023-06-14T11:19:00;1.25;;;0.90;;
20731;SDS011;10527;52.124;5.196;2023-06-14T11:21:29;1.70;;;1.00;;
20731;SDS011;10527;52.124;5.196;2023-06-14T11:23:59;1.70;;;1.13;;
20731;SDS011;10527;52.124;5.196;2023-06-14T11:26:27;0.80;;;0.80;;
20731;SDS011;10527;52.124;5.196;2023-06-14T11:28:56;2.13;;;0.75;;
20731;SDS011;10527;52.124;5.196;2023-06-14T11:31:26;2.70;;;0.95;;
20731;SDS011;10527;52.124;5.196;2023-06-14T11:33:58;2.20;;;1.25;;
20731;SDS011;10527;52.124;5.196;2023-06-14T11:36:26;1.48;;;0.88;;
20731;SDS011;10527;52.124;5.196;2023-06-14T11:39:02;1.45;;;0.77;;
20731;SDS011;10527;52.124;5.196;2023-06-14T11:41:41;1.35;;;0.90;;
20731;SDS011;10527;52.124;5.196;2023-06-14T11:44:11;2.03;;;0.73;;
20731;SDS011;10527;52.124;5.196;2023-06-14T11:46:39;2.70;;;0.88;;
20731;SDS011;10527;52.124;5.196;2023-06-14T11:49:06;1.90;;;0.70;;
20731;SDS011;10527;52.124;5.196;2023-06-14T11:51:35;4.07;;;0.90;;
20731;SDS011;10527;52.124;5.196;2023-06-14T11:54:03;1.77;;;1.00;;
20731;SDS011;10527;52.124;5.196;2023-06-14T11:56:32;1.83;;;0.82;;
20731;SDS011;10527;52.124;5.196;2023-06-14T11:59:00;2.38;;;0.80;;
20731;SDS011;10527;52.124;5.196;2023-06-14T12:01:30;2.15;;;1.00;;
20731;SDS011;10527;52.124;5.196;2023-06-14T12:03:58;2.95;;;1.23;;
20731;SDS011;10527;52.124;5.196;2023-06-14T12:06:26;1.77;;;0.80;;
20731;SDS011;10527;52.124;5.196;2023-06-14T12:08:59;1.67;;;0.80;;
20731;SDS011;10527;52.124;5.196;2023-06-14T12:11:31;0.98;;;0.77;;
20731;SDS011;10527;52.124;5.196;2023-06-14T12:14:02;4.90;;;1.00;;
20731;SDS011;10527;52.124;5.196;2023-06-14T12:16:34;1.33;;;0.70;;
20731;SDS011;10527;52.124;5.196;2023-06-14T12:19:14;4.70;;;1.00;;
20731;SDS011;10527;52.124;5.196;2023-06-14T12:21:46;2.13;;;0.98;;
20731;SDS011;10527;52.124;5.196;2023-06-14T12:24:15;1.08;;;0.85;;
20731;SDS011;10527;52.124;5.196;2023-06-14T12:26:43;7.38;;;1.20;;
20731;SDS011;10527;52.124;5.196;2023-06-14T12:29:10;1.33;;;0.85;;
20731;SDS011;10527;52.124;5.196;2023-06-14T12:31:39;1.38;;;0.95;;
20731;SDS011;10527;52.124;5.196;2023-06-14T12:34:07;2.42;;;1.00;;
20731;SDS011;10527;52.124;5.196;2023-06-14T12:36:34;5.47;;;1.10;;
20731;SDS011;10527;52.124;5.196;2023-06-14T12:39:06;1.67;;;0.80;;
20731;SDS011;10527;52.124;5.196;2023-06-14T12:41:34;2.65;;;0.70;;
20731;SDS011;10527;52.124;5.196;2023-06-14T12:44:03;1.35;;;0.80;;
20731;SDS011;10527;52.124;5.196;2023-06-14T12:46:30;0.95;;;0.70;;
20731;SDS011;10527;52.124;5.196;2023-06-14T12:48:58;0.90;;;0.80;;
20731;SDS011;10527;52.124;5.196;2023-06-14T12:51:25;1.23;;;0.70;;
20731;SDS011;10527;52.124;5.196;2023-06-14T12:53:52;1.75;;;0.90;;
20731;SDS011;10527;52.124;5.196;2023-06-14T12:56:19;1.13;;;0.88;;
20731;SDS011;10527;52.124;5.196;2023-06-14T12:58:49;2.30;;;0.98;;
20731;SDS011;10527;52.124;5.196;2023-06-14T13:01:18;1.63;;;0.70;;
20731;SDS011;10527;52.124;5.196;2023-06-14T13:03:48;3.17;;;1.00;;
20731;SDS011;10527;52.124;5.196;2023-06-14T13:06:17;2.92;;;1.02;;
20731;SDS011;10527;52.124;5.196;2023-06-14T13:08:44;2.35;;;1.00;;
20731;SDS011;10527;52.124;5.196;2023-06-14T13:11:11;2.88;;;1.02;;
20731;SDS011;10527;52.124;5.196;2023-06-14T13:13:41;2.15;;;1.00;;
20731;SDS011;10527;52.124;5.196;2023-06-14T13:16:08;2.03;;;0.80;;
20731;SDS011;10527;52.124;5.196;2023-06-14T13:18:35;1.75;;;0.90;;
20731;SDS011;10527;52.124;5.196;2023-06-14T13:21:01;2.17;;;0.90;;
20731;SDS011;10527;52.124;5.196;2023-06-14T13:23:28;1.42;;;1.10;;
20731;SDS011;10527;52.124;5.196;2023-06-14T13:25:55;1.67;;;0.90;;
20731;SDS011;10527;52.124;5.196;2023-06-14T13:28:22;2.00;;;0.93;;
20731;SDS011;10527;52.124;5.196;2023-06-14T13:30:49;1.77;;;0.88;;
20731;SDS011;10527;52.124;5.196;2023-06-14T13:33:16;1.75;;;0.95;;
20731;SDS011;10527;52.124;5.196;2023-06-14T13:35:43;1.23;;;0.80;;
20731;SDS011;10527;52.124;5.196;2023-06-14T13:38:12;3.22;;;1.20;;
20731;SDS011;10527;52.124;5.196;2023-06-14T13:40:41;1.55;;;1.08;;
20731;SDS011;10527;52.124;5.196;2023-06-14T13:43:10;1.42;;;0.90;;
20731;SDS011;10527;52.124;5.196;2023-06-14T13:45:42;1.20;;;0.90;;
20731;SDS011;10527;52.124;5.196;2023-06-14T13:48:09;2.38;;;0.70;;
20731;SDS011;10527;52.124;5.196;2023-06-14T13:50:39;2.17;;;0.80;;
20731;SDS011;10527;52.124;5.196;2023-06-14T13:53:06;1.27;;;0.80;;
20731;SDS011;10527;52.124;5.196;2023-06-14T13:55:32;1.98;;;1.10;;
20731;SDS011;10527;52.124;5.196;2023-06-14T13:57:59;1.13;;;0.90;;
20731;SDS011;10527;52.124;5.196;2023-06-14T14:00:27;1.02;;;0.80;;
20731;SDS011;10527;52.124;5.196;2023-06-14T14:03:00;1.08;;;0.70;;
20731;SDS011;10527;52.124;5.196;2023-06-14T14:05:26;7.00;;;0.80;;
20731;SDS011;10527;52.124;5.196;2023-06-14T14:07:55;1.60;;;0.70;;
20731;SDS011;10527;52.124;5.196;2023-06-14T14:10:24;1.52;;;0.80;;
20731;SDS011;10527;52.124;5.196;2023-06-14T14:12:51;0.98;;;0.77;;
20731;SDS011;10527;52.124;5.196;2023-06-14T14:15:19;1.10;;;0.80;;
20731;SDS011;10527;52.124;5.196;2023-06-14T14:17:46;2.95;;;0.60;;
20731;SDS011;10527;52.124;5.196;2023-06-14T14:20:14;2.25;;;1.00;;
20731;SDS011;10527;52.124;5.196;2023-06-14T14:22:42;1.33;;;0.70;;
20731;SDS011;10527;52.124;5.196;2023-06-14T14:25:09;1.00;;;0.70;;
20731;SDS011;10527;52.124;5.196;2023-06-14T14:27:41;3.20;;;0.80;;
20731;SDS011;10527;52.124;5.196;2023-06-14T14:30:08;1.40;;;0.80;;
20731;SDS011;10527;52.124;5.196;2023-06-14T14:32:35;1.67;;;0.65;;
20731;SDS011;10527;52.124;5.196;2023-06-14T14:35:02;1.20;;;0.70;;
20731;SDS011;10527;52.124;5.196;2023-06-14T14:37:32;1.38;;;0.63;;
20731;SDS011;10527;52.124;5.196;2023-06-14T14:39:59;1.65;;;0.75;;
20731;SDS011;10527;52.124;5.196;2023-06-14T14:42:26;3.90;;;0.88;;
20731;SDS011;10527;52.124;5.196;2023-06-14T14:44:54;1.25;;;0.85;;
20731;SDS011;10527;52.124;5.196;2023-06-14T14:47:21;2.28;;;0.68;;
20731;SDS011;10527;52.124;5.196;2023-06-14T14:49:48;4.95;;;1.10;;
20731;SDS011;10527;52.124;5.196;2023-06-14T14:52:14;1.80;;;1.20;;
20731;SDS011;10527;52.124;5.196;2023-06-14T14:54:49;1.45;;;0.90;;
20731;SDS011;10527;52.124;5.196;2023-06-14T14:57:16;4.45;;;1.02;;
20731;SDS011;10527;52.124;5.196;2023-06-14T14:59:43;4.68;;;0.90;;
20731;SDS011;10527;52.124;5.196;2023-06-14T15:02:11;1.30;;;0.70;;
20731;SDS011;10527;52.124;5.196;2023-06-14T15:04:38;1.00;;;0.50;;
20731;SDS011;10527;52.124;5.196;2023-06-14T15:07:08;3.00;;;0.75;;
20731;SDS011;10527;52.124;5.196;2023-06-14T15:09:35;2.22;;;0.73;;
20731;SDS011;10527;52.124;5.196;2023-06-14T15:12:02;1.02;;;0.68;;
20731;SDS011;10527;52.124;5.196;2023-06-14T15:14:30;1.15;;;0.60;;